sensor_id;sensor_type;location;lat;lon;timestamp;P1;durP1;ratioP1;P2;durP2;ratioP2
55300;SDS011;58302;51.446;-2.000;2023-05-20T00:00:32;24.15;;;13.50;;
55300;SDS011;58302;51.446;-2.000;2023-05-20T00:02:59;23.25;;;14.05;;
55300;SDS011;58302;51.446;-2.000;2023-05-20T00:05:25;22.15;;;13.38;;
55300;SDS011;58302;51.446;-2.000;2023-05-20T00:07:51;25.63;;;13.63;;
55300;SDS011;58302;51.446;-2.000;2023-05-20T00:10:17;20.35;;;11.35;;
55300;SDS011;58302;51.446;-2.000;2023-05-20T00:12:43;22.33;;;12.27;;
55300;SDS011;58302;51.446;-2.000;2023-05-20T00:15:09;17.08;;;9.82;;
55300;SDS011;58302;51.446;-2.000;2023-05-20T00:17:36;16.92;;;9.57;;
55300;SDS011;58302;51.446;-2.000;2023-05-20T00:20:02;15.57;;;9.85;;
55300;SDS011;58302;51.446;-2.000;2023-05-20T00:22:30;20.20;;;10.32;;
55300;SDS011;58302;51.446;-2.000;2023-05-20T00:24:56;21.60;;;11.02;;
55300;SDS011;58302;51.446;-2.000;2023-05-20T00:27:22;17.67;;;10.05;;
55300;SDS011;58302;51.446;-2.000;2023-05-20T00:29:48;17.25;;;9.73;;
55300;SDS011;58302;51.446;-2.000;2023-05-20T00:32:14;16.80;;;10.45;;
55300;SDS011;58302;51.446;-2.000;2023-05-20T00:34:41;15.68;;;10.63;;
55300;SDS011;58302;51.446;-2.000;2023-05-20T00:37:07;15.15;;;9.70;;
55300;SDS011;58302;51.446;-2.000;2023-05-20T00:39:33;18.63;;;10.75;;
55300;SDS011;58302;51.446;-2.000;2023-05-20T00:41:59;16.95;;;9.98;;
55300;SDS011;58302;51.446;-2.000;2023-05-20T00:44:28;17.58;;;10.73;;
55300;SDS011;58302;51.446;-2.000;2023-05-20T00:46:54;22.58;;;10.05;;
55300;SDS011;58302;51.446;-2.000;2023-05-20T00:49:20;16.85;;;10.25;;
55300;SDS011;58302;51.446;-2.000;2023-05-20T00:51:48;18.85;;;10.07;;
55300;SDS011;58302;51.446;-2.000;2023-05-20T00:54:14;15.65;;;9.50;;
55300;SDS011;58302;51.446;-2.000;2023-05-20T00:56:40;18.48;;;10.32;;
55300;SDS011;58302;51.446;-2.000;2023-05-20T00:59:07;20.40;;;11.00;;
55300;SDS011;58302;51.446;-2.000;2023-05-20T01:01:34;16.70;;;9.98;;
55300;SDS011;58302;51.446;-2.000;2023-05-20T01:04:00;16.70;;;10.40;;
55300;SDS011;58302;51.446;-2.000;2023-05-20T01:06:26;13.95;;;8.75;;
55300;SDS011;58302;51.446;-2.000;2023-05-20T01:08:52;19.08;;;11.35;;
55300;SDS011;58302;51.446;-2.000;2023-05-20T01:11:26;18.60;;;9.40;;
55300;SDS011;58302;51.446;-2.000;2023-05-20T01:13:57;15.45;;;9.77;;
55300;SDS011;58302;51.446;-2.000;2023-05-20T01:16:28;20.92;;;9.82;;
55300;SDS011;58302;51.446;-2.000;2023-05-20T01:18:56;17.17;;;9.15;;
55300;SDS011;58302;51.446;-2.000;2023-05-20T01:21:23;18.88;;;10.07;;
55300;SDS011;58302;51.446;-2.000;2023-05-20T01:23:51;14.25;;;8.88;;
55300;SDS011;58302;51.446;-2.000;2023-05-20T01:34:04;22.83;;;10.35;;
55300;SDS011;58302;51.446;-2.000;2023-05-20T01:36:31;19.40;;;10.30;;
55300;SDS011;58302;51.446;-2.000;2023-05-20T01:38:58;19.40;;;11.05;;
55300;SDS011;58302;51.446;-2.000;2023-05-20T01:41:26;22.27;;;11.75;;
55300;SDS011;58302;51.446;-2.000;2023-05-20T01:43:54;20.20;;;11.07;;
55300;SDS011;58302;51.446;-2.000;2023-05-20T01:46:20;18.23;;;11.00;;
55300;SDS011;58302;51.446;-2.000;2023-05-20T01:48:46;18.17;;;11.00;;
55300;SDS011;58302;51.446;-2.000;2023-05-20T01:51:12;20.77;;;10.50;;
55300;SDS011;58302;51.446;-2.000;2023-05-20T01:53:39;22.23;;;11.90;;
55300;SDS011;58302;51.446;-2.000;2023-05-20T01:56:05;25.02;;;11.90;;
55300;SDS011;58302;51.446;-2.000;2023-05-20T01:58:31;24.02;;;11.82;;
55300;SDS011;58302;51.446;-2.000;2023-05-20T02:00:57;34.30;;;11.70;;
55300;SDS011;58302;51.446;-2.000;2023-05-20T02:03:23;17.27;;;10.50;;
55300;SDS011;58302;51.446;-2.000;2023-05-20T02:05:48;23.65;;;11.25;;
55300;SDS011;58302;51.446;-2.000;2023-05-20T02:08:15;18.55;;;10.80;;
55300;SDS011;58302;51.446;-2.000;2023-05-20T02:10:41;19.60;;;11.27;;
55300;SDS011;58302;51.446;-2.000;2023-05-20T02:13:06;23.75;;;11.43;;
55300;SDS011;58302;51.446;-2.000;2023-05-20T02:15:32;19.45;;;10.90;;
55300;SDS011;58302;51.446;-2.000;2023-05-20T02:17:58;27.70;;;12.20;;
55300;SDS011;58302;51.446;-2.000;2023-05-20T02:20:24;21.38;;;11.45;;
55300;SDS011;58302;51.446;-2.000;2023-05-20T02:22:50;19.08;;;12.02;;
55300;SDS011;58302;51.446;-2.000;2023-05-20T02:25:16;21.40;;;10.82;;
55300;SDS011;58302;51.446;-2.000;2023-05-20T02:27:42;17.63;;;11.27;;
55300;SDS011;58302;51.446;-2.000;2023-05-20T02:30:08;21.85;;;9.95;;
55300;SDS011;58302;51.446;-2.000;2023-05-20T02:32:34;16.80;;;11.20;;
55300;SDS011;58302;51.446;-2.000;2023-05-20T02:35:00;20.15;;;10.77;;
55300;SDS011;58302;51.446;-2.000;2023-05-20T02:37:26;19.70;;;10.82;;
55300;SDS011;58302;51.446;-2.000;2023-05-20T02:39:53;18.48;;;11.38;;
55300;SDS011;58302;51.446;-2.000;2023-05-20T02:42:20;20.60;;;10.90;;
55300;SDS011;58302;51.446;-2.000;2023-05-20T02:44:46;21.58;;;12.02;;
55300;SDS011;58302;51.446;-2.000;2023-05-20T02:47:12;24.92;;;12.30;;
55300;SDS011;58302;51.446;-2.000;2023-05-20T02:49:38;32.45;;;14.05;;
55300;SDS011;58302;51.446;-2.000;2023-05-20T02:52:04;28.92;;;13.95;;
55300;SDS011;58302;51.446;-2.000;2023-05-20T02:54:30;28.08;;;13.93;;
55300;SDS011;58302;51.446;-2.000;2023-05-20T02:56:56;28.38;;;14.43;;
55300;SDS011;58302;51.446;-2.000;2023-05-20T02:59:22;22.65;;;12.45;;
55300;SDS011;58302;51.446;-2.000;2023-05-20T03:01:48;31.75;;;15.57;;
55300;SDS011;58302;51.446;-2.000;2023-05-20T03:04:14;34.97;;;17.08;;
55300;SDS011;58302;51.446;-2.000;2023-05-20T03:06:40;28.95;;;13.85;;
55300;SDS011;58302;51.446;-2.000;2023-05-20T03:09:08;32.40;;;15.32;;
55300;SDS011;58302;51.446;-2.000;2023-05-20T03:11:34;32.55;;;15.18;;
55300;SDS011;58302;51.446;-2.000;2023-05-20T03:14:00;28.63;;;13.57;;
55300;SDS011;58302;51.446;-2.000;2023-05-20T03:16:26;37.03;;;16.17;;
55300;SDS011;58302;51.446;-2.000;2023-05-20T03:18:52;33.47;;;16.13;;
55300;SDS011;58302;51.446;-2.000;2023-05-20T03:21:19;45.00;;;17.63;;
55300;SDS011;58302;51.446;-2.000;2023-05-20T03:23:48;33.88;;;16.05;;
55300;SDS011;58302;51.446;-2.000;2023-05-20T03:26:14;36.72;;;16.02;;
55300;SDS011;58302;51.446;-2.000;2023-05-20T03:28:40;39.97;;;17.95;;
55300;SDS011;58302;51.446;-2.000;2023-05-20T03:31:06;42.17;;;18.15;;
55300;SDS011;58302;51.446;-2.000;2023-05-20T03:33:33;40.08;;;18.20;;
55300;SDS011;58302;51.446;-2.000;2023-05-20T03:35:59;33.38;;;17.20;;
55300;SDS011;58302;51.446;-2.000;2023-05-20T03:38:26;42.72;;;18.83;;
55300;SDS011;58302;51.446;-2.000;2023-05-20T03:40:52;44.85;;;19.73;;
55300;SDS011;58302;51.446;-2.000;2023-05-20T03:43:18;48.58;;;20.10;;
55300;SDS011;58302;51.446;-2.000;2023-05-20T03:45:43;42.90;;;17.92;;
55300;SDS011;58302;51.446;-2.000;2023-05-20T03:48:09;33.83;;;17.52;;
55300;SDS011;58302;51.446;-2.000;2023-05-20T03:50:35;41.67;;;19.35;;
55300;SDS011;58302;51.446;-2.000;2023-05-20T03:53:01;37.53;;;19.40;;
55300;SDS011;58302;51.446;-2.000;2023-05-20T03:55:27;46.28;;;21.85;;
55300;SDS011;58302;51.446;-2.000;2023-05-20T03:57:53;62.60;;;22.92;;
55300;SDS011;58302;51.446;-2.000;2023-05-20T04:00:19;33.17;;;20.40;;
55300;SDS011;58302;51.446;-2.000;2023-05-20T04:02:45;37.85;;;18.10;;
55300;SDS011;58302;51.446;-2.000;2023-05-20T04:05:11;39.92;;;18.67;;
55300;SDS011;58302;51.446;-2.000;2023-05-20T04:07:38;39.08;;;16.67;;
55300;SDS011;58302;51.446;-2.000;2023-05-20T04:10:04;38.28;;;17.48;;
55300;SDS011;58302;51.446;-2.000;2023-05-20T04:12:31;32.72;;;18.38;;
55300;SDS011;58302;51.446;-2.000;2023-05-20T04:14:57;33.92;;;17.35;;
55300;SDS011;58302;51.446;-2.000;2023-05-20T04:17:29;48.47;;;18.17;;
55300;SDS011;58302;51.446;-2.000;2023-05-20T04:19:56;35.97;;;16.55;;
55300;SDS011;58302;51.446;-2.000;2023-05-20T04:22:24;30.02;;;15.98;;
55300;SDS011;58302;51.446;-2.000;2023-05-20T04:24:51;34.88;;;14.65;;
55300;SDS011;58302;51.446;-2.000;2023-05-20T04:27:17;30.27;;;16.70;;
55300;SDS011;58302;51.446;-2.000;2023-05-20T04:29:45;30.13;;;15.52;;
55300;SDS011;58302;51.446;-2.000;2023-05-20T04:32:16;31.40;;;15.38;;
55300;SDS011;58302;51.446;-2.000;2023-05-20T04:34:43;32.88;;;17.00;;
55300;SDS011;58302;51.446;-2.000;2023-05-20T04:37:13;26.20;;;14.38;;
55300;SDS011;58302;51.446;-2.000;2023-05-20T04:39:39;30.25;;;14.02;;
55300;SDS011;58302;51.446;-2.000;2023-05-20T04:42:08;24.73;;;14.32;;
55300;SDS011;58302;51.446;-2.000;2023-05-20T04:44:34;25.75;;;14.77;;
55300;SDS011;58302;51.446;-2.000;2023-05-20T04:47:00;30.48;;;15.68;;
55300;SDS011;58302;51.446;-2.000;2023-05-20T04:49:26;25.45;;;15.30;;
55300;SDS011;58302;51.446;-2.000;2023-05-20T04:51:55;24.95;;;13.82;;
55300;SDS011;58302;51.446;-2.000;2023-05-20T04:54:21;26.27;;;13.48;;
55300;SDS011;58302;51.446;-2.000;2023-05-20T04:56:47;23.73;;;12.75;;
55300;SDS011;58302;51.446;-2.000;2023-05-20T04:59:13;24.60;;;12.63;;
55300;SDS011;58302;51.446;-2.000;2023-05-20T05:01:39;21.80;;;11.50;;
55300;SDS011;58302;51.446;-2.000;2023-05-20T05:04:06;24.67;;;12.30;;
55300;SDS011;58302;51.446;-2.000;2023-05-20T05:06:32;21.92;;;11.30;;
55300;SDS011;58302;51.446;-2.000;2023-05-20T05:08:58;24.58;;;12.82;;
55300;SDS011;58302;51.446;-2.000;2023-05-20T05:11:24;21.63;;;11.00;;
55300;SDS011;58302;51.446;-2.000;2023-05-20T05:13:51;18.73;;;10.95;;
55300;SDS011;58302;51.446;-2.000;2023-05-20T05:16:17;22.80;;;10.98;;
55300;SDS011;58302;51.446;-2.000;2023-05-20T05:18:43;20.27;;;10.90;;
55300;SDS011;58302;51.446;-2.000;2023-05-20T05:21:09;18.42;;;10.57;;
55300;SDS011;58302;51.446;-2.000;2023-05-20T05:23:35;22.38;;;10.88;;
55300;SDS011;58302;51.446;-2.000;2023-05-20T05:26:01;18.50;;;10.73;;
55300;SDS011;58302;51.446;-2.000;2023-05-20T05:28:27;17.65;;;12.20;;
55300;SDS011;58302;51.446;-2.000;2023-05-20T05:30:54;17.92;;;11.35;;
55300;SDS011;58302;51.446;-2.000;2023-05-20T05:33:21;17.63;;;9.70;;
55300;SDS011;58302;51.446;-2.000;2023-05-20T05:35:47;15.88;;;9.93;;
55300;SDS011;58302;51.446;-2.000;2023-05-20T05:38:13;22.65;;;9.13;;
55300;SDS011;58302;51.446;-2.000;2023-05-20T05:40:39;16.27;;;8.63;;
55300;SDS011;58302;51.446;-2.000;2023-05-20T05:43:05;18.27;;;10.30;;
55300;SDS011;58302;51.446;-2.000;2023-05-20T05:45:31;18.17;;;9.75;;
55300;SDS011;58302;51.446;-2.000;2023-05-20T05:47:57;23.48;;;11.07;;
55300;SDS011;58302;51.446;-2.000;2023-05-20T05:50:23;17.73;;;9.73;;
55300;SDS011;58302;51.446;-2.000;2023-05-20T05:52:49;19.83;;;10.60;;
55300;SDS011;58302;51.446;-2.000;2023-05-20T05:55:15;24.15;;;10.82;;
55300;SDS011;58302;51.446;-2.000;2023-05-20T05:57:42;19.00;;;11.68;;
55300;SDS011;58302;51.446;-2.000;2023-05-20T06:00:09;19.42;;;11.02;;
55300;SDS011;58302;51.446;-2.000;2023-05-20T06:02:35;21.48;;;10.60;;
55300;SDS011;58302;51.446;-2.000;2023-05-20T06:05:02;16.55;;;10.32;;
55300;SDS011;58302;51.446;-2.000;2023-05-20T06:07:28;16.67;;;10.65;;
55300;SDS011;58302;51.446;-2.000;2023-05-20T06:09:54;17.88;;;9.65;;
55300;SDS011;58302;51.446;-2.000;2023-05-20T06:12:20;19.05;;;10.20;;
55300;SDS011;58302;51.446;-2.000;2023-05-20T06:14:46;17.38;;;10.10;;
55300;SDS011;58302;51.446;-2.000;2023-05-20T06:17:13;14.90;;;9.93;;
55300;SDS011;58302;51.446;-2.000;2023-05-20T06:19:39;17.65;;;10.20;;
55300;SDS011;58302;51.446;-2.000;2023-05-20T06:22:05;13.32;;;9.20;;
55300;SDS011;58302;51.446;-2.000;2023-05-20T06:24:32;20.90;;;10.30;;
55300;SDS011;58302;51.446;-2.000;2023-05-20T06:26:59;12.43;;;7.55;;
55300;SDS011;58302;51.446;-2.000;2023-05-20T06:29:25;13.80;;;8.88;;
55300;SDS011;58302;51.446;-2.000;2023-05-20T06:31:51;13.18;;;8.45;;
55300;SDS011;58302;51.446;-2.000;2023-05-20T06:34:17;13.98;;;8.52;;
55300;SDS011;58302;51.446;-2.000;2023-05-20T06:36:43;16.00;;;9.52;;
55300;SDS011;58302;51.446;-2.000;2023-05-20T06:39:09;15.73;;;8.55;;
55300;SDS011;58302;51.446;-2.000;2023-05-20T06:41:38;9.25;;;6.78;;
55300;SDS011;58302;51.446;-2.000;2023-05-20T06:44:04;12.35;;;7.28;;
55300;SDS011;58302;51.446;-2.000;2023-05-20T06:46:31;9.82;;;6.65;;
55300;SDS011;58302;51.446;-2.000;2023-05-20T06:48:58;12.40;;;7.22;;
55300;SDS011;58302;51.446;-2.000;2023-05-20T06:51:25;10.93;;;7.15;;
55300;SDS011;58302;51.446;-2.000;2023-05-20T06:53:52;12.35;;;7.10;;
55300;SDS011;58302;51.446;-2.000;2023-05-20T06:56:18;9.93;;;6.63;;
55300;SDS011;58302;51.446;-2.000;2023-05-20T06:58:44;8.60;;;6.10;;
55300;SDS011;58302;51.446;-2.000;2023-05-20T07:01:10;10.23;;;6.50;;
55300;SDS011;58302;51.446;-2.000;2023-05-20T07:03:36;9.07;;;6.00;;
55300;SDS011;58302;51.446;-2.000;2023-05-20T07:06:02;10.07;;;5.78;;
55300;SDS011;58302;51.446;-2.000;2023-05-20T07:08:28;10.20;;;6.38;;
55300;SDS011;58302;51.446;-2.000;2023-05-20T07:10:55;7.13;;;5.53;;
55300;SDS011;58302;51.446;-2.000;2023-05-20T07:13:21;9.75;;;6.15;;
55300;SDS011;58302;51.446;-2.000;2023-05-20T07:15:50;7.60;;;5.30;;
55300;SDS011;58302;51.446;-2.000;2023-05-20T07:18:16;8.85;;;6.03;;
55300;SDS011;58302;51.446;-2.000;2023-05-20T07:20:43;8.18;;;5.82;;
55300;SDS011;58302;51.446;-2.000;2023-05-20T07:23:09;7.38;;;5.15;;
55300;SDS011;58302;51.446;-2.000;2023-05-20T07:25:35;8.93;;;6.40;;
55300;SDS011;58302;51.446;-2.000;2023-05-20T07:28:01;9.90;;;6.13;;
55300;SDS011;58302;51.446;-2.000;2023-05-20T07:30:27;11.85;;;5.97;;
55300;SDS011;58302;51.446;-2.000;2023-05-20T07:32:53;12.07;;;5.63;;
55300;SDS011;58302;51.446;-2.000;2023-05-20T07:35:19;9.43;;;5.53;;
55300;SDS011;58302;51.446;-2.000;2023-05-20T07:37:45;8.15;;;4.65;;
55300;SDS011;58302;51.446;-2.000;2023-05-20T07:40:11;8.85;;;3.25;;
55300;SDS011;58302;51.446;-2.000;2023-05-20T07:42:38;7.78;;;5.53;;
55300;SDS011;58302;51.446;-2.000;2023-05-20T07:45:05;7.38;;;3.95;;
55300;SDS011;58302;51.446;-2.000;2023-05-20T07:47:32;6.88;;;3.95;;
55300;SDS011;58302;51.446;-2.000;2023-05-20T07:49:58;8.27;;;4.57;;
55300;SDS011;58302;51.446;-2.000;2023-05-20T07:52:24;4.78;;;3.78;;
55300;SDS011;58302;51.446;-2.000;2023-05-20T07:54:50;7.53;;;4.43;;
55300;SDS011;58302;51.446;-2.000;2023-05-20T07:57:16;8.73;;;4.72;;
55300;SDS011;58302;51.446;-2.000;2023-05-20T07:59:42;7.03;;;4.30;;
55300;SDS011;58302;51.446;-2.000;2023-05-20T08:02:08;8.27;;;4.40;;
55300;SDS011;58302;51.446;-2.000;2023-05-20T08:04:34;9.50;;;4.90;;
55300;SDS011;58302;51.446;-2.000;2023-05-20T08:07:00;6.40;;;3.95;;
55300;SDS011;58302;51.446;-2.000;2023-05-20T08:09:26;7.53;;;4.00;;
55300;SDS011;58302;51.446;-2.000;2023-05-20T08:11:52;5.35;;;4.07;;
55300;SDS011;58302;51.446;-2.000;2023-05-20T08:14:18;5.82;;;3.95;;
55300;SDS011;58302;51.446;-2.000;2023-05-20T08:16:45;7.07;;;3.53;;
55300;SDS011;58302;51.446;-2.000;2023-05-20T08:19:11;10.40;;;4.53;;
55300;SDS011;58302;51.446;-2.000;2023-05-20T08:21:36;9.35;;;4.50;;
55300;SDS011;58302;51.446;-2.000;2023-05-20T08:24:03;6.47;;;4.30;;
55300;SDS011;58302;51.446;-2.000;2023-05-20T08:26:30;6.40;;;4.53;;
55300;SDS011;58302;51.446;-2.000;2023-05-20T08:28:56;6.43;;;5.05;;
55300;SDS011;58302;51.446;-2.000;2023-05-20T08:31:22;9.88;;;4.30;;
55300;SDS011;58302;51.446;-2.000;2023-05-20T08:33:48;6.70;;;4.15;;
55300;SDS011;58302;51.446;-2.000;2023-05-20T08:36:14;8.35;;;5.43;;
55300;SDS011;58302;51.446;-2.000;2023-05-20T08:38:40;8.52;;;4.47;;
55300;SDS011;58302;51.446;-2.000;2023-05-20T08:41:06;7.65;;;4.20;;
55300;SDS011;58302;51.446;-2.000;2023-05-20T08:43:32;8.77;;;5.07;;
55300;SDS011;58302;51.446;-2.000;2023-05-20T08:45:59;9.13;;;4.07;;
55300;SDS011;58302;51.446;-2.000;2023-05-20T08:48:26;8.93;;;4.32;;
55300;SDS011;58302;51.446;-2.000;2023-05-20T08:50:55;5.45;;;4.20;;
55300;SDS011;58302;51.446;-2.000;2023-05-20T08:53:22;6.80;;;4.25;;
55300;SDS011;58302;51.446;-2.000;2023-05-20T08:55:52;7.97;;;4.32;;
55300;SDS011;58302;51.446;-2.000;2023-05-20T08:58:28;7.50;;;4.95;;
55300;SDS011;58302;51.446;-2.000;2023-05-20T09:00:54;7.15;;;4.60;;
55300;SDS011;58302;51.446;-2.000;2023-05-20T09:03:20;6.60;;;4.95;;
55300;SDS011;58302;51.446;-2.000;2023-05-20T09:05:48;4.35;;;3.80;;
55300;SDS011;58302;51.446;-2.000;2023-05-20T09:08:14;7.28;;;4.82;;
55300;SDS011;58302;51.446;-2.000;2023-05-20T09:10:40;4.95;;;4.13;;
55300;SDS011;58302;51.446;-2.000;2023-05-20T09:13:07;6.25;;;3.85;;
55300;SDS011;58302;51.446;-2.000;2023-05-20T09:15:34;8.88;;;4.72;;
55300;SDS011;58302;51.446;-2.000;2023-05-20T09:18:02;8.18;;;4.20;;
55300;SDS011;58302;51.446;-2.000;2023-05-20T09:20:29;6.78;;;3.92;;
55300;SDS011;58302;51.446;-2.000;2023-05-20T09:23:00;10.13;;;4.55;;
55300;SDS011;58302;51.446;-2.000;2023-05-20T09:25:26;9.00;;;4.55;;
55300;SDS011;58302;51.446;-2.000;2023-05-20T09:27:53;8.80;;;4.55;;
55300;SDS011;58302;51.446;-2.000;2023-05-20T09:30:20;5.95;;;4.22;;
55300;SDS011;58302;51.446;-2.000;2023-05-20T09:32:54;7.22;;;4.38;;
55300;SDS011;58302;51.446;-2.000;2023-05-20T09:35:24;5.68;;;3.95;;
55300;SDS011;58302;51.446;-2.000;2023-05-20T09:37:55;7.97;;;3.67;;
55300;SDS011;58302;51.446;-2.000;2023-05-20T09:40:23;6.82;;;3.90;;
55300;SDS011;58302;51.446;-2.000;2023-05-20T09:42:55;6.97;;;3.58;;
55300;SDS011;58302;51.446;-2.000;2023-05-20T09:45:22;7.93;;;3.95;;
55300;SDS011;58302;51.446;-2.000;2023-05-20T09:47:50;5.25;;;3.22;;
55300;SDS011;58302;51.446;-2.000;2023-05-20T09:50:18;9.38;;;4.50;;
55300;SDS011;58302;51.446;-2.000;2023-05-20T09:52:47;7.57;;;3.85;;
55300;SDS011;58302;51.446;-2.000;2023-05-20T09:55:18;7.18;;;4.30;;
55300;SDS011;58302;51.446;-2.000;2023-05-20T09:57:45;5.35;;;3.78;;
55300;SDS011;58302;51.446;-2.000;2023-05-20T10:00:12;7.35;;;4.65;;
55300;SDS011;58302;51.446;-2.000;2023-05-20T10:02:45;7.07;;;3.72;;
55300;SDS011;58302;51.446;-2.000;2023-05-20T10:05:16;7.00;;;3.67;;
55300;SDS011;58302;51.446;-2.000;2023-05-20T10:19:18;7.78;;;3.05;;
55300;SDS011;58302;51.446;-2.000;2023-05-20T10:24:29;6.78;;;3.65;;
55300;SDS011;58302;51.446;-2.000;2023-05-20T10:26:57;7.50;;;3.25;;
55300;SDS011;58302;51.446;-2.000;2023-05-20T10:29:24;5.93;;;3.28;;
55300;SDS011;58302;51.446;-2.000;2023-05-20T10:31:51;5.72;;;3.33;;
55300;SDS011;58302;51.446;-2.000;2023-05-20T10:34:18;6.15;;;4.18;;
55300;SDS011;58302;51.446;-2.000;2023-05-20T10:39:23;7.53;;;4.10;;
55300;SDS011;58302;51.446;-2.000;2023-05-20T10:41:51;5.50;;;3.97;;
55300;SDS011;58302;51.446;-2.000;2023-05-20T10:44:17;7.55;;;3.80;;
55300;SDS011;58302;51.446;-2.000;2023-05-20T10:46:43;7.75;;;3.70;;
55300;SDS011;58302;51.446;-2.000;2023-05-20T10:49:16;4.88;;;3.45;;
55300;SDS011;58302;51.446;-2.000;2023-05-20T10:51:45;7.60;;;3.75;;
55300;SDS011;58302;51.446;-2.000;2023-05-20T10:54:13;5.80;;;3.80;;
55300;SDS011;58302;51.446;-2.000;2023-05-20T10:56:49;6.57;;;4.40;;
55300;SDS011;58302;51.446;-2.000;2023-05-20T10:59:18;5.55;;;3.83;;
55300;SDS011;58302;51.446;-2.000;2023-05-20T11:01:46;5.15;;;3.25;;
55300;SDS011;58302;51.446;-2.000;2023-05-20T11:04:13;7.70;;;3.78;;
55300;SDS011;58302;51.446;-2.000;2023-05-20T11:06:51;5.15;;;3.40;;
55300;SDS011;58302;51.446;-2.000;2023-05-20T11:09:18;6.00;;;3.95;;
55300;SDS011;58302;51.446;-2.000;2023-05-20T11:11:44;5.35;;;3.50;;
55300;SDS011;58302;51.446;-2.000;2023-05-20T11:14:10;4.35;;;3.20;;
55300;SDS011;58302;51.446;-2.000;2023-05-20T11:16:40;7.88;;;3.80;;
55300;SDS011;58302;51.446;-2.000;2023-05-20T11:19:07;9.07;;;3.85;;
55300;SDS011;58302;51.446;-2.000;2023-05-20T11:21:42;10.05;;;4.13;;
55300;SDS011;58302;51.446;-2.000;2023-05-20T11:24:09;6.13;;;3.70;;
55300;SDS011;58302;51.446;-2.000;2023-05-20T11:26:35;7.57;;;5.15;;
55300;SDS011;58302;51.446;-2.000;2023-05-20T11:29:01;6.65;;;3.63;;
55300;SDS011;58302;51.446;-2.000;2023-05-20T11:31:28;7.90;;;3.72;;
55300;SDS011;58302;51.446;-2.000;2023-05-20T11:33:54;11.07;;;3.90;;
55300;SDS011;58302;51.446;-2.000;2023-05-20T11:36:20;5.75;;;3.72;;
55300;SDS011;58302;51.446;-2.000;2023-05-20T11:38:46;7.30;;;4.00;;
55300;SDS011;58302;51.446;-2.000;2023-05-20T11:41:12;4.82;;;3.35;;
55300;SDS011;58302;51.446;-2.000;2023-05-20T11:43:38;5.95;;;3.65;;
55300;SDS011;58302;51.446;-2.000;2023-05-20T11:46:07;6.32;;;3.38;;
55300;SDS011;58302;51.446;-2.000;2023-05-20T11:48:34;4.45;;;3.60;;
55300;SDS011;58302;51.446;-2.000;2023-05-20T11:51:00;8.70;;;3.88;;
55300;SDS011;58302;51.446;-2.000;2023-05-20T11:53:26;8.27;;;3.67;;
55300;SDS011;58302;51.446;-2.000;2023-05-20T11:55:54;7.28;;;3.63;;
55300;SDS011;58302;51.446;-2.000;2023-05-20T11:58:22;6.30;;;3.55;;
55300;SDS011;58302;51.446;-2.000;2023-05-20T12:00:53;6.28;;;3.45;;
55300;SDS011;58302;51.446;-2.000;2023-05-20T12:03:19;4.93;;;3.13;;
55300;SDS011;58302;51.446;-2.000;2023-05-20T12:05:47;6.65;;;3.70;;
55300;SDS011;58302;51.446;-2.000;2023-05-20T12:08:16;5.75;;;3.83;;
55300;SDS011;58302;51.446;-2.000;2023-05-20T12:10:42;6.45;;;3.10;;
55300;SDS011;58302;51.446;-2.000;2023-05-20T12:13:10;4.85;;;3.33;;
55300;SDS011;58302;51.446;-2.000;2023-05-20T12:15:38;8.63;;;3.67;;
55300;SDS011;58302;51.446;-2.000;2023-05-20T12:18:04;4.03;;;3.08;;
55300;SDS011;58302;51.446;-2.000;2023-05-20T12:20:31;6.35;;;3.00;;
55300;SDS011;58302;51.446;-2.000;2023-05-20T12:22:59;6.85;;;3.03;;
55300;SDS011;58302;51.446;-2.000;2023-05-20T12:25:25;3.90;;;2.85;;
55300;SDS011;58302;51.446;-2.000;2023-05-20T12:27:52;6.18;;;3.70;;
55300;SDS011;58302;51.446;-2.000;2023-05-20T12:30:20;6.80;;;3.58;;
55300;SDS011;58302;51.446;-2.000;2023-05-20T12:32:48;6.47;;;4.03;;
55300;SDS011;58302;51.446;-2.000;2023-05-20T12:35:15;5.97;;;3.22;;
55300;SDS011;58302;51.446;-2.000;2023-05-20T12:37:42;4.85;;;3.10;;
55300;SDS011;58302;51.446;-2.000;2023-05-20T12:40:10;5.40;;;3.15;;
55300;SDS011;58302;51.446;-2.000;2023-05-20T12:42:37;5.60;;;2.85;;
55300;SDS011;58302;51.446;-2.000;2023-05-20T12:45:06;9.45;;;3.97;;
55300;SDS011;58302;51.446;-2.000;2023-05-20T12:47:33;7.53;;;3.30;;
55300;SDS011;58302;51.446;-2.000;2023-05-20T12:50:01;7.30;;;3.20;;
55300;SDS011;58302;51.446;-2.000;2023-05-20T12:52:28;4.68;;;3.20;;
55300;SDS011;58302;51.446;-2.000;2023-05-20T12:54:54;6.75;;;3.40;;
55300;SDS011;58302;51.446;-2.000;2023-05-20T12:57:21;4.18;;;2.90;;
55300;SDS011;58302;51.446;-2.000;2023-05-20T12:59:48;4.28;;;3.47;;
55300;SDS011;58302;51.446;-2.000;2023-05-20T13:02:14;6.25;;;2.47;;
55300;SDS011;58302;51.446;-2.000;2023-05-20T13:04:40;5.70;;;2.80;;
55300;SDS011;58302;51.446;-2.000;2023-05-20T13:07:06;5.38;;;2.92;;
55300;SDS011;58302;51.446;-2.000;2023-05-20T13:09:32;6.82;;;3.00;;
55300;SDS011;58302;51.446;-2.000;2023-05-20T13:11:59;5.25;;;3.17;;
55300;SDS011;58302;51.446;-2.000;2023-05-20T13:14:26;5.28;;;2.80;;
55300;SDS011;58302;51.446;-2.000;2023-05-20T13:16:52;4.40;;;2.65;;
55300;SDS011;58302;51.446;-2.000;2023-05-20T13:19:23;4.03;;;3.10;;
55300;SDS011;58302;51.446;-2.000;2023-05-20T13:21:49;7.25;;;3.03;;
55300;SDS011;58302;51.446;-2.000;2023-05-20T13:24:16;7.18;;;2.45;;
55300;SDS011;58302;51.446;-2.000;2023-05-20T13:26:43;6.47;;;2.80;;
55300;SDS011;58302;51.446;-2.000;2023-05-20T13:29:11;3.63;;;2.10;;
55300;SDS011;58302;51.446;-2.000;2023-05-20T13:31:39;7.00;;;3.17;;
55300;SDS011;58302;51.446;-2.000;2023-05-20T13:34:05;3.15;;;2.25;;
55300;SDS011;58302;51.446;-2.000;2023-05-20T13:36:31;3.40;;;2.47;;
55300;SDS011;58302;51.446;-2.000;2023-05-20T13:38:58;5.47;;;2.70;;
55300;SDS011;58302;51.446;-2.000;2023-05-20T13:41:25;6.82;;;2.90;;
55300;SDS011;58302;51.446;-2.000;2023-05-20T13:43:52;7.13;;;3.33;;
55300;SDS011;58302;51.446;-2.000;2023-05-20T13:46:18;5.10;;;3.25;;
55300;SDS011;58302;51.446;-2.000;2023-05-20T13:48:44;6.15;;;2.80;;
55300;SDS011;58302;51.446;-2.000;2023-05-20T13:51:10;4.20;;;3.15;;
55300;SDS011;58302;51.446;-2.000;2023-05-20T13:53:37;7.30;;;3.08;;
55300;SDS011;58302;51.446;-2.000;2023-05-20T13:56:03;3.78;;;2.53;;
55300;SDS011;58302;51.446;-2.000;2023-05-20T13:58:30;3.85;;;2.70;;
55300;SDS011;58302;51.446;-2.000;2023-05-20T14:00:57;6.30;;;3.58;;
55300;SDS011;58302;51.446;-2.000;2023-05-20T14:03:24;3.58;;;2.65;;
55300;SDS011;58302;51.446;-2.000;2023-05-20T14:05:52;3.95;;;2.38;;
55300;SDS011;58302;51.446;-2.000;2023-05-20T14:08:19;5.28;;;2.83;;
55300;SDS011;58302;51.446;-2.000;2023-05-20T14:10:45;5.22;;;2.30;;
55300;SDS011;58302;51.446;-2.000;2023-05-20T14:13:15;6.90;;;2.88;;
55300;SDS011;58302;51.446;-2.000;2023-05-20T14:15:41;6.22;;;2.50;;
55300;SDS011;58302;51.446;-2.000;2023-05-20T14:18:09;5.68;;;2.38;;
55300;SDS011;58302;51.446;-2.000;2023-05-20T14:20:36;5.90;;;3.00;;
55300;SDS011;58302;51.446;-2.000;2023-05-20T14:23:03;5.45;;;2.92;;
55300;SDS011;58302;51.446;-2.000;2023-05-20T14:25:29;4.93;;;2.55;;
55300;SDS011;58302;51.446;-2.000;2023-05-20T14:27:55;4.25;;;2.70;;
55300;SDS011;58302;51.446;-2.000;2023-05-20T14:30:21;4.63;;;2.15;;
55300;SDS011;58302;51.446;-2.000;2023-05-20T14:32:47;3.00;;;2.30;;
55300;SDS011;58302;51.446;-2.000;2023-05-20T14:35:12;6.15;;;2.40;;
55300;SDS011;58302;51.446;-2.000;2023-05-20T14:37:39;4.40;;;2.40;;
55300;SDS011;58302;51.446;-2.000;2023-05-20T14:40:05;3.38;;;2.47;;
55300;SDS011;58302;51.446;-2.000;2023-05-20T14:42:32;5.55;;;2.30;;
55300;SDS011;58302;51.446;-2.000;2023-05-20T14:44:58;4.25;;;2.72;;